sensor_id;sensor_type;location;lat;lon;timestamp;temperature;humidity
57664;DHT22;43493;53.098;6.064;2023-04-16T00:02:12;9.00;99.90
57664;DHT22;43493;53.098;6.064;2023-04-16T00:04:38;9.00;99.90
57664;DHT22;43493;53.098;6.064;2023-04-16T00:07:04;9.00;99.90
57664;DHT22;43493;53.098;6.064;2023-04-16T00:09:30;9.00;99.90
57664;DHT22;43493;53.098;6.064;2023-04-16T00:11:55;9.00;99.90
57664;DHT22;43493;53.098;6.064;2023-04-16T00:14:21;9.00;99.90
57664;DHT22;43493;53.098;6.064;2023-04-16T00:16:47;9.00;99.90
57664;DHT22;43493;53.098;6.064;2023-04-16T00:19:13;9.00;99.90
57664;DHT22;43493;53.098;6.064;2023-04-16T00:21:38;9.00;99.90
57664;DHT22;43493;53.098;6.064;2023-04-16T00:24:04;9.00;99.90
57664;DHT22;43493;53.098;6.064;2023-04-16T00:26:30;9.00;99.90
57664;DHT22;43493;53.098;6.064;2023-04-16T00:28:56;9.00;99.90
57664;DHT22;43493;53.098;6.064;2023-04-16T00:31:29;9.00;99.90
57664;DHT22;43493;53.098;6.064;2023-04-16T00:33:55;9.00;99.90
57664;DHT22;43493;53.098;6.064;2023-04-16T00:36:25;9.00;99.90
57664;DHT22;43493;53.098;6.064;2023-04-16T00:38:55;9.00;99.90
57664;DHT22;43493;53.098;6.064;2023-04-16T00:41:21;9.00;99.90
57664;DHT22;43493;53.098;6.064;2023-04-16T00:43:48;9.00;99.90
57664;DHT22;43493;53.098;6.064;2023-04-16T00:46:15;9.00;99.90
57664;DHT22;43493;53.098;6.064;2023-04-16T00:48:42;9.00;99.90
57664;DHT22;43493;53.098;6.064;2023-04-16T00:51:09;9.00;99.90
57664;DHT22;43493;53.098;6.064;2023-04-16T00:53:35;9.00;99.90
57664;DHT22;43493;53.098;6.064;2023-04-16T00:56:06;9.00;99.90
57664;DHT22;43493;53.098;6.064;2023-04-16T00:58:33;9.00;99.90
57664;DHT22;43493;53.098;6.064;2023-04-16T01:00:59;9.00;99.90
57664;DHT22;43493;53.098;6.064;2023-04-16T01:03:38;9.00;99.90
57664;DHT22;43493;53.098;6.064;2023-04-16T01:06:08;9.00;99.90
57664;DHT22;43493;53.098;6.064;2023-04-16T01:08:34;9.00;99.90
57664;DHT22;43493;53.098;6.064;2023-04-16T01:11:00;9.00;99.90
57664;DHT22;43493;53.098;6.064;2023-04-16T01:13:26;9.00;99.90
57664;DHT22;43493;53.098;6.064;2023-04-16T01:15:51;9.00;99.90
57664;DHT22;43493;53.098;6.064;2023-04-16T01:18:19;9.00;99.90
57664;DHT22;43493;53.098;6.064;2023-04-16T01:20:46;9.00;99.90
57664;DHT22;43493;53.098;6.064;2023-04-16T01:23:12;8.90;99.90
57664;DHT22;43493;53.098;6.064;2023-04-16T01:25:38;8.90;99.90
57664;DHT22;43493;53.098;6.064;2023-04-16T01:28:04;8.90;99.90
57664;DHT22;43493;53.098;6.064;2023-04-16T01:30:30;8.90;99.90
57664;DHT22;43493;53.098;6.064;2023-04-16T01:32:56;8.90;99.90
57664;DHT22;43493;53.098;6.064;2023-04-16T01:35:23;9.00;99.90
57664;DHT22;43493;53.098;6.064;2023-04-16T01:37:49;8.90;99.90
57664;DHT22;43493;53.098;6.064;2023-04-16T01:40:15;8.90;99.90
57664;DHT22;43493;53.098;6.064;2023-04-16T01:42:41;8.90;99.90
57664;DHT22;43493;53.098;6.064;2023-04-16T01:45:07;8.90;99.90
57664;DHT22;43493;53.098;6.064;2023-04-16T01:47:33;8.90;99.90
57664;DHT22;43493;53.098;6.064;2023-04-16T01:50:00;8.90;99.90
57664;DHT22;43493;53.098;6.064;2023-04-16T01:52:26;8.90;99.90
57664;DHT22;43493;53.098;6.064;2023-04-16T01:54:52;8.90;99.90
57664;DHT22;43493;53.098;6.064;2023-04-16T01:57:18;8.90;99.90
57664;DHT22;43493;53.098;6.064;2023-04-16T01:59:43;8.90;99.90
57664;DHT22;43493;53.098;6.064;2023-04-16T02:02:11;8.90;99.90
57664;DHT22;43493;53.098;6.064;2023-04-16T02:04:38;8.80;99.90
57664;DHT22;43493;53.098;6.064;2023-04-16T02:07:04;8.80;99.90
57664;DHT22;43493;53.098;6.064;2023-04-16T02:09:32;8.90;99.90
57664;DHT22;43493;53.098;6.064;2023-04-16T02:11:58;8.90;99.90
57664;DHT22;43493;53.098;6.064;2023-04-16T02:14:24;8.80;99.90
57664;DHT22;43493;53.098;6.064;2023-04-16T02:16:50;8.80;99.90
57664;DHT22;43493;53.098;6.064;2023-04-16T02:19:16;8.90;99.90
57664;DHT22;43493;53.098;6.064;2023-04-16T02:21:42;8.90;99.90
57664;DHT22;43493;53.098;6.064;2023-04-16T02:24:08;8.80;99.90
57664;DHT22;43493;53.098;6.064;2023-04-16T02:26:34;8.80;99.90
57664;DHT22;43493;53.098;6.064;2023-04-16T02:28:59;8.90;99.90
57664;DHT22;43493;53.098;6.064;2023-04-16T02:31:25;8.90;99.90
57664;DHT22;43493;53.098;6.064;2023-04-16T02:33:53;8.90;99.90
57664;DHT22;43493;53.098;6.064;2023-04-16T02:36:19;8.90;99.90
57664;DHT22;43493;53.098;6.064;2023-04-16T02:38:45;8.90;99.90
57664;DHT22;43493;53.098;6.064;2023-04-16T02:41:10;8.90;99.90
57664;DHT22;43493;53.098;6.064;2023-04-16T02:43:36;8.90;99.90
57664;DHT22;43493;53.098;6.064;2023-04-16T02:46:02;8.80;99.90
57664;DHT22;43493;53.098;6.064;2023-04-16T02:48:28;8.90;99.90
57664;DHT22;43493;53.098;6.064;2023-04-16T02:50:53;8.90;99.90
57664;DHT22;43493;53.098;6.064;2023-04-16T02:53:19;8.90;99.90
57664;DHT22;43493;53.098;6.064;2023-04-16T02:55:53;8.90;99.90
57664;DHT22;43493;53.098;6.064;2023-04-16T02:58:24;8.90;99.90
57664;DHT22;43493;53.098;6.064;2023-04-16T03:00:51;8.80;99.90
57664;DHT22;43493;53.098;6.064;2023-04-16T03:03:16;8.80;99.90
57664;DHT22;43493;53.098;6.064;2023-04-16T03:05:42;8.80;99.90
57664;DHT22;43493;53.098;6.064;2023-04-16T03:08:09;8.80;99.90
57664;DHT22;43493;53.098;6.064;2023-04-16T03:10:35;8.80;99.90
57664;DHT22;43493;53.098;6.064;2023-04-16T03:13:01;8.80;99.90
57664;DHT22;43493;53.098;6.064;2023-04-16T03:15:28;8.80;99.90
57664;DHT22;43493;53.098;6.064;2023-04-16T03:17:53;8.80;99.90
57664;DHT22;43493;53.098;6.064;2023-04-16T03:20:19;8.80;99.90
57664;DHT22;43493;53.098;6.064;2023-04-16T03:22:46;8.80;99.90
57664;DHT22;43493;53.098;6.064;2023-04-16T03:25:12;8.80;99.90
57664;DHT22;43493;53.098;6.064;2023-04-16T03:27:38;8.80;99.90
57664;DHT22;43493;53.098;6.064;2023-04-16T03:30:10;8.80;99.90
57664;DHT22;43493;53.098;6.064;2023-04-16T03:32:36;8.80;99.90
57664;DHT22;43493;53.098;6.064;2023-04-16T03:35:03;8.80;99.90
57664;DHT22;43493;53.098;6.064;2023-04-16T03:37:29;8.90;99.90
57664;DHT22;43493;53.098;6.064;2023-04-16T03:39:55;8.90;99.90
57664;DHT22;43493;53.098;6.064;2023-04-16T03:42:21;8.90;99.90
57664;DHT22;43493;53.098;6.064;2023-04-16T03:44:47;8.80;99.90
57664;DHT22;43493;53.098;6.064;2023-04-16T03:47:12;8.80;99.90
57664;DHT22;43493;53.098;6.064;2023-04-16T03:49:38;8.80;99.90
57664;DHT22;43493;53.098;6.064;2023-04-16T03:52:04;8.80;99.90
57664;DHT22;43493;53.098;6.064;2023-04-16T03:54:30;8.80;99.90
57664;DHT22;43493;53.098;6.064;2023-04-16T03:56:55;8.80;99.90
57664;DHT22;43493;53.098;6.064;2023-04-16T03:59:21;8.80;99.90
57664;DHT22;43493;53.098;6.064;2023-04-16T04:01:47;8.80;99.90
57664;DHT22;43493;53.098;6.064;2023-04-16T04:04:13;8.80;99.90
57664;DHT22;43493;53.098;6.064;2023-04-16T04:06:39;8.80;99.90
57664;DHT22;43493;53.098;6.064;2023-04-16T04:09:05;8.80;99.90
57664;DHT22;43493;53.098;6.064;2023-04-16T04:11:31;8.80;99.90
57664;DHT22;43493;53.098;6.064;2023-04-16T04:13:57;8.80;99.90
57664;DHT22;43493;53.098;6.064;2023-04-16T04:16:23;8.80;99.90
57664;DHT22;43493;53.098;6.064;2023-04-16T04:18:49;8.90;99.90
57664;DHT22;43493;53.098;6.064;2023-04-16T04:21:14;8.90;99.90
57664;DHT22;43493;53.098;6.064;2023-04-16T04:23:40;8.90;99.90
57664;DHT22;43493;53.098;6.064;2023-04-16T04:26:07;8.90;99.90
57664;DHT22;43493;53.098;6.064;2023-04-16T04:28:33;8.90;99.90
57664;DHT22;43493;53.098;6.064;2023-04-16T04:31:00;8.90;99.90
57664;DHT22;43493;53.098;6.064;2023-04-16T04:33:26;8.90;99.90
57664;DHT22;43493;53.098;6.064;2023-04-16T04:35:52;8.90;99.90
57664;DHT22;43493;53.098;6.064;2023-04-16T04:38:18;8.90;99.90
57664;DHT22;43493;53.098;6.064;2023-04-16T04:40:47;8.90;99.90
57664;DHT22;43493;53.098;6.064;2023-04-16T04:43:13;8.90;99.90
57664;DHT22;43493;53.098;6.064;2023-04-16T04:45:39;8.90;99.90
57664;DHT22;43493;53.098;6.064;2023-04-16T04:48:05;9.00;99.90
57664;DHT22;43493;53.098;6.064;2023-04-16T04:50:31;9.00;99.90
57664;DHT22;43493;53.098;6.064;2023-04-16T04:52:56;9.00;99.90
57664;DHT22;43493;53.098;6.064;2023-04-16T04:55:22;9.00;99.90
57664;DHT22;43493;53.098;6.064;2023-04-16T04:57:48;9.00;99.90
57664;DHT22;43493;53.098;6.064;2023-04-16T05:00:14;9.00;99.90
57664;DHT22;43493;53.098;6.064;2023-04-16T05:02:40;9.00;99.90
57664;DHT22;43493;53.098;6.064;2023-04-16T05:05:07;9.00;99.90
57664;DHT22;43493;53.098;6.064;2023-04-16T05:07:32;9.00;99.90
57664;DHT22;43493;53.098;6.064;2023-04-16T05:09:58;9.10;99.90
57664;DHT22;43493;53.098;6.064;2023-04-16T05:12:24;9.10;99.90
57664;DHT22;43493;53.098;6.064;2023-04-16T05:14:50;9.10;99.90
57664;DHT22;43493;53.098;6.064;2023-04-16T05:17:15;9.10;99.90
57664;DHT22;43493;53.098;6.064;2023-04-16T05:19:41;9.10;99.90
57664;DHT22;43493;53.098;6.064;2023-04-16T05:22:07;9.10;99.90
57664;DHT22;43493;53.098;6.064;2023-04-16T05:24:32;9.20;99.90
57664;DHT22;43493;53.098;6.064;2023-04-16T05:26:58;9.20;99.90
57664;DHT22;43493;53.098;6.064;2023-04-16T05:29:24;9.20;99.90
57664;DHT22;43493;53.098;6.064;2023-04-16T05:31:51;9.20;99.90
57664;DHT22;43493;53.098;6.064;2023-04-16T05:34:17;9.20;99.90
57664;DHT22;43493;53.098;6.064;2023-04-16T05:36:43;9.20;99.90
57664;DHT22;43493;53.098;6.064;2023-04-16T05:39:08;9.20;99.90
57664;DHT22;43493;53.098;6.064;2023-04-16T05:41:35;9.20;99.90
57664;DHT22;43493;53.098;6.064;2023-04-16T05:44:00;9.10;99.90
57664;DHT22;43493;53.098;6.064;2023-04-16T05:46:26;9.10;99.90
57664;DHT22;43493;53.098;6.064;2023-04-16T05:48:52;9.10;99.90
57664;DHT22;43493;53.098;6.064;2023-04-16T05:51:18;9.10;99.90
57664;DHT22;43493;53.098;6.064;2023-04-16T05:53:44;9.10;99.90
57664;DHT22;43493;53.098;6.064;2023-04-16T05:56:10;9.10;99.90
57664;DHT22;43493;53.098;6.064;2023-04-16T05:58:36;9.10;99.90
57664;DHT22;43493;53.098;6.064;2023-04-16T06:01:01;9.10;99.90
57664;DHT22;43493;53.098;6.064;2023-04-16T06:03:27;9.10;99.90
57664;DHT22;43493;53.098;6.064;2023-04-16T06:05:53;9.20;99.90
57664;DHT22;43493;53.098;6.064;2023-04-16T06:08:19;9.20;99.90
57664;DHT22;43493;53.098;6.064;2023-04-16T06:10:46;9.20;99.90
57664;DHT22;43493;53.098;6.064;2023-04-16T06:13:12;9.20;99.90
57664;DHT22;43493;53.098;6.064;2023-04-16T06:15:37;9.20;99.90
57664;DHT22;43493;53.098;6.064;2023-04-16T06:18:03;9.20;99.90
57664;DHT22;43493;53.098;6.064;2023-04-16T06:20:30;9.20;99.90
57664;DHT22;43493;53.098;6.064;2023-04-16T06:22:55;9.30;99.90
57664;DHT22;43493;53.098;6.064;2023-04-16T06:25:21;9.30;99.90
57664;DHT22;43493;53.098;6.064;2023-04-16T06:27:47;9.20;99.90
57664;DHT22;43493;53.098;6.064;2023-04-16T06:30:14;9.30;99.90
57664;DHT22;43493;53.098;6.064;2023-04-16T06:32:41;9.30;99.90
57664;DHT22;43493;53.098;6.064;2023-04-16T06:35:08;9.30;99.90
57664;DHT22;43493;53.098;6.064;2023-04-16T06:37:34;9.30;99.90
57664;DHT22;43493;53.098;6.064;2023-04-16T06:40:00;9.30;99.90
57664;DHT22;43493;53.098;6.064;2023-04-16T06:42:26;9.30;99.90
57664;DHT22;43493;53.098;6.064;2023-04-16T06:44:51;9.30;99.90
57664;DHT22;43493;53.098;6.064;2023-04-16T06:47:17;9.30;99.90
57664;DHT22;43493;53.098;6.064;2023-04-16T06:49:43;9.30;99.90
57664;DHT22;43493;53.098;6.064;2023-04-16T06:52:09;9.40;99.90
57664;DHT22;43493;53.098;6.064;2023-04-16T06:54:35;9.30;99.90
57664;DHT22;43493;53.098;6.064;2023-04-16T06:57:00;9.40;99.90
57664;DHT22;43493;53.098;6.064;2023-04-16T06:59:26;9.40;99.90
57664;DHT22;43493;53.098;6.064;2023-04-16T07:01:52;9.40;99.90
57664;DHT22;43493;53.098;6.064;2023-04-16T07:04:18;9.40;99.90
57664;DHT22;43493;53.098;6.064;2023-04-16T07:06:44;9.40;99.90
57664;DHT22;43493;53.098;6.064;2023-04-16T07:09:09;9.50;99.90
57664;DHT22;43493;53.098;6.064;2023-04-16T07:11:35;9.50;99.90
57664;DHT22;43493;53.098;6.064;2023-04-16T07:14:01;9.50;99.90
57664;DHT22;43493;53.098;6.064;2023-04-16T07:16:27;9.50;99.90
57664;DHT22;43493;53.098;6.064;2023-04-16T07:18:53;9.60;99.90
57664;DHT22;43493;53.098;6.064;2023-04-16T07:21:18;9.60;99.90
57664;DHT22;43493;53.098;6.064;2023-04-16T07:23:45;9.60;99.90
57664;DHT22;43493;53.098;6.064;2023-04-16T07:26:11;9.60;99.90
57664;DHT22;43493;53.098;6.064;2023-04-16T07:28:36;9.60;99.90
57664;DHT22;43493;53.098;6.064;2023-04-16T07:31:02;9.70;99.90
57664;DHT22;43493;53.098;6.064;2023-04-16T07:33:28;9.70;99.90
57664;DHT22;43493;53.098;6.064;2023-04-16T07:35:54;9.70;99.90
57664;DHT22;43493;53.098;6.064;2023-04-16T07:38:19;9.70;99.90
57664;DHT22;43493;53.098;6.064;2023-04-16T07:40:45;9.80;99.90
57664;DHT22;43493;53.098;6.064;2023-04-16T07:43:12;9.80;99.90
57664;DHT22;43493;53.098;6.064;2023-04-16T07:45:37;9.80;99.90
57664;DHT22;43493;53.098;6.064;2023-04-16T07:48:03;9.90;99.90
57664;DHT22;43493;53.098;6.064;2023-04-16T07:50:30;9.90;99.90
57664;DHT22;43493;53.098;6.064;2023-04-16T07:52:55;9.90;99.90
57664;DHT22;43493;53.098;6.064;2023-04-16T07:55:21;9.90;99.90
57664;DHT22;43493;53.098;6.064;2023-04-16T07:57:47;9.90;99.90
57664;DHT22;43493;53.098;6.064;2023-04-16T08:00:13;10.00;99.90
57664;DHT22;43493;53.098;6.064;2023-04-16T08:02:39;10.00;99.90
57664;DHT22;43493;53.098;6.064;2023-04-16T08:05:05;10.10;99.90
57664;DHT22;43493;53.098;6.064;2023-04-16T08:07:31;10.10;99.90
57664;DHT22;43493;53.098;6.064;2023-04-16T08:09:57;10.20;99.90
57664;DHT22;43493;53.098;6.064;2023-04-16T08:12:23;10.20;99.90
57664;DHT22;43493;53.098;6.064;2023-04-16T08:14:49;10.20;99.90
57664;DHT22;43493;53.098;6.064;2023-04-16T08:17:15;10.20;99.90
57664;DHT22;43493;53.098;6.064;2023-04-16T08:19:41;10.30;99.90
57664;DHT22;43493;53.098;6.064;2023-04-16T08:22:08;10.30;99.90
57664;DHT22;43493;53.098;6.064;2023-04-16T08:24:33;10.40;99.90
57664;DHT22;43493;53.098;6.064;2023-04-16T08:26:59;10.40;99.90
57664;DHT22;43493;53.098;6.064;2023-04-16T08:29:25;10.40;99.90
57664;DHT22;43493;53.098;6.064;2023-04-16T08:31:52;10.40;99.90
57664;DHT22;43493;53.098;6.064;2023-04-16T08:34:18;10.40;99.90
57664;DHT22;43493;53.098;6.064;2023-04-16T08:36:43;10.50;99.90
57664;DHT22;43493;53.098;6.064;2023-04-16T08:39:10;10.50;99.90
57664;DHT22;43493;53.098;6.064;2023-04-16T08:41:37;10.40;99.90
57664;DHT22;43493;53.098;6.064;2023-04-16T08:44:13;10.40;99.90
57664;DHT22;43493;53.098;6.064;2023-04-16T08:46:40;10.40;99.90
57664;DHT22;43493;53.098;6.064;2023-04-16T08:49:06;10.50;99.90
57664;DHT22;43493;53.098;6.064;2023-04-16T08:51:35;10.50;99.90
57664;DHT22;43493;53.098;6.064;2023-04-16T08:54:10;10.60;99.90
57664;DHT22;43493;53.098;6.064;2023-04-16T08:56:40;10.70;99.90
57664;DHT22;43493;53.098;6.064;2023-04-16T08:59:08;10.70;99.90
57664;DHT22;43493;53.098;6.064;2023-04-16T09:01:34;10.70;99.90
57664;DHT22;43493;53.098;6.064;2023-04-16T09:04:00;10.70;99.90
57664;DHT22;43493;53.098;6.064;2023-04-16T09:06:27;10.80;99.90
57664;DHT22;43493;53.098;6.064;2023-04-16T09:08:53;10.80;99.90
57664;DHT22;43493;53.098;6.064;2023-04-16T09:11:20;10.90;99.90
57664;DHT22;43493;53.098;6.064;2023-04-16T09:13:46;11.00;99.90
57664;DHT22;43493;53.098;6.064;2023-04-16T09:16:13;11.00;99.90
57664;DHT22;43493;53.098;6.064;2023-04-16T09:18:39;11.10;99.90
57664;DHT22;43493;53.098;6.064;2023-04-16T09:21:05;11.20;99.90
57664;DHT22;43493;53.098;6.064;2023-04-16T09:23:34;11.30;99.90
57664;DHT22;43493;53.098;6.064;2023-04-16T09:26:01;11.30;99.90
57664;DHT22;43493;53.098;6.064;2023-04-16T09:31:15;11.30;99.90
57664;DHT22;43493;53.098;6.064;2023-04-16T09:33:42;11.30;99.90
57664;DHT22;43493;53.098;6.064;2023-04-16T09:36:09;11.40;99.90
57664;DHT22;43493;53.098;6.064;2023-04-16T09:38:55;11.40;99.90
57664;DHT22;43493;53.098;6.064;2023-04-16T09:41:27;11.40;99.90
57664;DHT22;43493;53.098;6.064;2023-04-16T09:43:56;11.40;99.90
57664;DHT22;43493;53.098;6.064;2023-04-16T09:46:39;11.40;99.90
57664;DHT22;43493;53.098;6.064;2023-04-16T09:49:15;11.60;99.90
57664;DHT22;43493;53.098;6.064;2023-04-16T09:51:43;11.60;99.90
57664;DHT22;43493;53.098;6.064;2023-04-16T09:54:09;11.60;99.90
57664;DHT22;43493;53.098;6.064;2023-04-16T09:56:43;11.60;99.90
57664;DHT22;43493;53.098;6.064;2023-04-16T09:59:19;11.60;99.90
57664;DHT22;43493;53.098;6.064;2023-04-16T10:01:45;11.70;99.90
57664;DHT22;43493;53.098;6.064;2023-04-16T10:04:11;11.80;99.90
57664;DHT22;43493;53.098;6.064;2023-04-16T10:06:37;11.90;99.90
57664;DHT22;43493;53.098;6.064;2023-04-16T10:09:06;12.00;99.90
57664;DHT22;43493;53.098;6.064;2023-04-16T10:11:32;12.10;99.90
57664;DHT22;43493;53.098;6.064;2023-04-16T10:13:58;12.10;99.90
57664;DHT22;43493;53.098;6.064;2023-04-16T10:16:24;12.00;99.90
57664;DHT22;43493;53.098;6.064;2023-04-16T10:18:50;12.10;99.90
57664;DHT22;43493;53.098;6.064;2023-04-16T10:21:18;12.10;99.90
57664;DHT22;43493;53.098;6.064;2023-04-16T10:23:44;12.10;99.90
57664;DHT22;43493;53.098;6.064;2023-04-16T10:26:09;12.00;99.90
57664;DHT22;43493;53.098;6.064;2023-04-16T10:28:35;12.10;99.90
57664;DHT22;43493;53.098;6.064;2023-04-16T10:31:04;12.10;99.90
57664;DHT22;43493;53.098;6.064;2023-04-16T10:33:35;12.10;99.90
57664;DHT22;43493;53.098;6.064;2023-04-16T10:36:12;12.20;99.90
57664;DHT22;43493;53.098;6.064;2023-04-16T10:41:11;12.20;99.90
57664;DHT22;43493;53.098;6.064;2023-04-16T10:43:50;12.10;99.90
57664;DHT22;43493;53.098;6.064;2023-04-16T10:48:42;12.10;99.90
57664;DHT22;43493;53.098;6.064;2023-04-16T10:51:31;12.10;99.90
57664;DHT22;43493;53.098;6.064;2023-04-16T10:56:30;12.10;99.90
57664;DHT22;43493;53.098;6.064;2023-04-16T10:58:56;12.00;99.90
57664;DHT22;43493;53.098;6.064;2023-04-16T11:01:35;12.10;99.90
57664;DHT22;43493;53.098;6.064;2023-04-16T11:04:25;12.10;99.90
57664;DHT22;43493;53.098;6.064;2023-04-16T11:09:54;12.20;99.90
57664;DHT22;43493;53.098;6.064;2023-04-16T11:12:37;12.30;99.90
57664;DHT22;43493;53.098;6.064;2023-04-16T11:15:05;12.30;99.90
57664;DHT22;43493;53.098;6.064;2023-04-16T11:20:02;12.30;99.90
57664;DHT22;43493;53.098;6.064;2023-04-16T11:22:27;12.30;99.90
57664;DHT22;43493;53.098;6.064;2023-04-16T11:24:56;12.20;99.90
57664;DHT22;43493;53.098;6.064;2023-04-16T11:27:23;12.20;99.90
57664;DHT22;43493;53.098;6.064;2023-04-16T11:30:04;12.30;99.90
57664;DHT22;43493;53.098;6.064;2023-04-16T11:32:32;12.20;99.90
57664;DHT22;43493;53.098;6.064;2023-04-16T11:34:58;12.20;99.90
57664;DHT22;43493;53.098;6.064;2023-04-16T11:37:35;12.20;99.90
57664;DHT22;43493;53.098;6.064;2023-04-16T11:40:03;12.20;99.90
57664;DHT22;43493;53.098;6.064;2023-04-16T11:42:32;12.30;99.90
57664;DHT22;43493;53.098;6.064;2023-04-16T11:44:59;12.30;99.90
57664;DHT22;43493;53.098;6.064;2023-04-16T11:47:25;12.20;99.90
57664;DHT22;43493;53.098;6.064;2023-04-16T11:49:51;12.20;99.90
57664;DHT22;43493;53.098;6.064;2023-04-16T11:52:28;12.30;99.90
57664;DHT22;43493;53.098;6.064;2023-04-16T11:54:54;12.30;99.90
57664;DHT22;43493;53.098;6.064;2023-04-16T11:57:28;12.30;99.90
57664;DHT22;43493;53.098;6.064;2023-04-16T11:59:57;12.40;99.90
57664;DHT22;43493;53.098;6.064;2023-04-16T12:02:34;12.50;99.90
57664;DHT22;43493;53.098;6.064;2023-04-16T12:05:02;12.50;99.90
57664;DHT22;43493;53.098;6.064;2023-04-16T12:07:28;12.60;99.90
57664;DHT22;43493;53.098;6.064;2023-04-16T12:10:05;12.60;99.90
57664;DHT22;43493;53.098;6.064;2023-04-16T12:12:32;12.70;99.90
57664;DHT22;43493;53.098;6.064;2023-04-16T12:14:58;12.80;99.90
57664;DHT22;43493;53.098;6.064;2023-04-16T12:17:25;12.80;99.90
57664;DHT22;43493;53.098;6.064;2023-04-16T12:20:01;12.90;99.90
57664;DHT22;43493;53.098;6.064;2023-04-16T12:22:35;13.00;99.90
57664;DHT22;43493;53.098;6.064;2023-04-16T12:25:03;13.00;99.90
57664;DHT22;43493;53.098;6.064;2023-04-16T12:27:49;13.00;99.90
57664;DHT22;43493;53.098;6.064;2023-04-16T12:30:20;13.00;99.90
57664;DHT22;43493;53.098;6.064;2023-04-16T12:32:48;13.00;99.90
57664;DHT22;43493;53.098;6.064;2023-04-16T12:35:28;13.00;99.90
57664;DHT22;43493;53.098;6.064;2023-04-16T12:37:54;13.00;99.90
57664;DHT22;43493;53.098;6.064;2023-04-16T12:40:20;13.10;99.90
57664;DHT22;43493;53.098;6.064;2023-04-16T12:42:45;13.20;99.90
57664;DHT22;43493;53.098;6.064;2023-04-16T12:45:11;13.20;99.90
57664;DHT22;43493;53.098;6.064;2023-04-16T12:47:37;13.20;99.90
57664;DHT22;43493;53.098;6.064;2023-04-16T12:50:03;13.20;99.90
57664;DHT22;43493;53.098;6.064;2023-04-16T12:52:28;13.20;99.90
57664;DHT22;43493;53.098;6.064;2023-04-16T12:54:54;13.10;99.90
57664;DHT22;43493;53.098;6.064;2023-04-16T12:57:20;13.20;99.90
57664;DHT22;43493;53.098;6.064;2023-04-16T12:59:45;13.20;99.90
57664;DHT22;43493;53.098;6.064;2023-04-16T13:02:12;13.30;99.90
57664;DHT22;43493;53.098;6.064;2023-04-16T13:04:37;13.40;99.90
57664;DHT22;43493;53.098;6.064;2023-04-16T13:07:03;13.40;99.90
57664;DHT22;43493;53.098;6.064;2023-04-16T13:09:29;13.30;99.90
57664;DHT22;43493;53.098;6.064;2023-04-16T13:11:55;13.40;99.90
57664;DHT22;43493;53.098;6.064;2023-04-16T13:14:20;13.40;99.90
57664;DHT22;43493;53.098;6.064;2023-04-16T13:16:46;13.50;99.90
57664;DHT22;43493;53.098;6.064;2023-04-16T13:19:12;13.50;99.90
57664;DHT22;43493;53.098;6.064;2023-04-16T13:21:38;13.60;99.90
57664;DHT22;43493;53.098;6.064;2023-04-16T13:24:04;13.60;99.90
57664;DHT22;43493;53.098;6.064;2023-04-16T13:26:29;13.70;99.90
57664;DHT22;43493;53.098;6.064;2023-04-16T13:28:55;13.60;99.90
57664;DHT22;43493;53.098;6.064;2023-04-16T13:31:21;13.60;99.90
57664;DHT22;43493;53.098;6.064;2023-04-16T13:33:47;13.60;99.90
57664;DHT22;43493;53.098;6.064;2023-04-16T13:36:13;13.70;99.90
57664;DHT22;43493;53.098;6.064;2023-04-16T13:38:39;13.70;99.90
57664;DHT22;43493;53.098;6.064;2023-04-16T13:41:04;13.80;99.90
57664;DHT22;43493;53.098;6.064;2023-04-16T13:43:31;13.80;99.90
57664;DHT22;43493;53.098;6.064;2023-04-16T13:45:57;13.80;99.90
57664;DHT22;43493;53.098;6.064;2023-04-16T13:48:23;13.80;99.90
57664;DHT22;43493;53.098;6.064;2023-04-16T13:50:49;13.70;99.90
57664;DHT22;43493;53.098;6.064;2023-04-16T13:53:15;13.70;99.90
57664;DHT22;43493;53.098;6.064;2023-04-16T13:55:41;13.70;99.90
57664;DHT22;43493;53.098;6.064;2023-04-16T13:58:07;13.60;99.90
57664;DHT22;43493;53.098;6.064;2023-04-16T14:00:33;13.60;99.90
57664;DHT22;43493;53.098;6.064;2023-04-16T14:02:59;13.50;99.90
57664;DHT22;43493;53.098;6.064;2023-04-16T14:05:25;13.50;99.90
57664;DHT22;43493;53.098;6.064;2023-04-16T14:07:51;13.50;99.90
57664;DHT22;43493;53.098;6.064;2023-04-16T14:10:16;13.40;99.90
57664;DHT22;43493;53.098;6.064;2023-04-16T14:12:43;13.40;99.90
57664;DHT22;43493;53.098;6.064;2023-04-16T14:15:10;13.50;99.90
57664;DHT22;43493;53.098;6.064;2023-04-16T14:17:36;13.60;99.90
57664;DHT22;43493;53.098;6.064;2023-04-16T14:20:05;13.60;99.90
57664;DHT22;43493;53.098;6.064;2023-04-16T14:22:31;13.60;99.90
57664;DHT22;43493;53.098;6.064;2023-04-16T14:24:57;13.60;99.90
57664;DHT22;43493;53.098;6.064;2023-04-16T14:27:22;13.60;99.90
57664;DHT22;43493;53.098;6.064;2023-04-16T14:29:48;13.50;99.90
57664;DHT22;43493;53.098;6.064;2023-04-16T14:32:14;13.40;99.90
57664;DHT22;43493;53.098;6.064;2023-04-16T14:34:40;13.50;99.90
57664;DHT22;43493;53.098;6.064;2023-04-16T14:37:05;13.50;99.90
57664;DHT22;43493;53.098;6.064;2023-04-16T14:39:31;13.50;99.90
57664;DHT22;43493;53.098;6.064;2023-04-16T14:41:57;13.50;99.90
57664;DHT22;43493;53.098;6.064;2023-04-16T14:44:23;13.50;99.90
57664;DHT22;43493;53.098;6.064;2023-04-16T14:46:48;13.60;99.90
57664;DHT22;43493;53.098;6.064;2023-04-16T14:49:14;13.60;99.90
57664;DHT22;43493;53.098;6.064;2023-04-16T14:51:40;13.60;99.90
57664;DHT22;43493;53.098;6.064;2023-04-16T14:54:06;13.50;99.90
57664;DHT22;43493;53.098;6.064;2023-04-16T14:56:32;13.50;99.90
57664;DHT22;43493;53.098;6.064;2023-04-16T14:58:58;13.50;99.90
57664;DHT22;43493;53.098;6.064;2023-04-16T15:01:23;13.50;99.90
57664;DHT22;43493;53.098;6.064;2023-04-16T15:03:49;13.50;99.90
57664;DHT22;43493;53.098;6.064;2023-04-16T15:06:15;13.40;99.90
57664;DHT22;43493;53.098;6.064;2023-04-16T15:08:41;13.50;99.90
57664;DHT22;43493;53.098;6.064;2023-04-16T15:11:07;13.40;99.90
57664;DHT22;43493;53.098;6.064;2023-04-16T15:13:32;13.40;99.90
57664;DHT22;43493;53.098;6.064;2023-04-16T15:16:02;13.40;99.90
57664;DHT22;43493;53.098;6.064;2023-04-16T15:18:29;13.30;99.90
57664;DHT22;43493;53.098;6.064;2023-04-16T15:20:55;13.30;99.90
57664;DHT22;43493;53.098;6.064;2023-04-16T15:23:21;13.30;99.90
57664;DHT22;43493;53.098;6.064;2023-04-16T15:25:47;13.30;99.90
57664;DHT22;43493;53.098;6.064;2023-04-16T15:28:13;13.40;99.90
57664;DHT22;43493;53.098;6.064;2023-04-16T15:30:39;13.40;99.90
57664;DHT22;43493;53.098;6.064;2023-04-16T15:33:06;13.30;99.90
57664;DHT22;43493;53.098;6.064;2023-04-16T15:35:32;13.30;99.90
57664;DHT22;43493;53.098;6.064;2023-04-16T15:37:58;13.30;99.90
57664;DHT22;43493;53.098;6.064;2023-04-16T15:40:24;13.30;99.90
57664;DHT22;43493;53.098;6.064;2023-04-16T15:42:50;13.30;99.90
57664;DHT22;43493;53.098;6.064;2023-04-16T15:45:16;13.30;99.90
57664;DHT22;43493;53.098;6.064;2023-04-16T15:47:41;13.30;99.90
57664;DHT22;43493;53.098;6.064;2023-04-16T15:50:09;13.30;99.90
57664;DHT22;43493;53.098;6.064;2023-04-16T15:52:35;13.40;99.90